Time;durP1;ratioP1;P1;durP2;ratioP2;P2;SDS_P1;SDS_P2;PMS_P1;PMS_P2;Temp;Humidity;BMP_temperature;BMP_pressure;BME280_temperature;BME280_humidity;BME280_pressure;Samples;Min_cycle;Max_cycle;Signal;HPM_P1;HPM_P2
2023/04/07 00:00:14;;;;;;;;;;;;;;;16.06;51.51;101551.09;2071634;28;19926;-60
2023/04/07 00:01:16;;;;;;;;;;;;;;;16.05;51.56;101544.06;2073019;28;19929;-59
2023/04/07 00:02:19;;;;;;;;;;;;;;;16.05;51.27;101538.59;2072501;28;19934;-59
2023/04/07 00:03:21;;;;;;;;;;;;;;;16.06;51.50;101540.19;2074028;28;19979;-61
2023/04/07 00:04:27;;;;;;;;;;;;;;;16.06;51.53;101534.75;2073467;28;19933;-60
2023/04/07 00:05:29;;;;;;;;;;;;;;;16.04;51.29;101537.84;2072459;28;19929;-61
2023/04/07 00:06:32;;;;;;;;;;;;;;;16.06;51.36;101537.47;2070131;28;20453;-57
2023/04/07 00:07:34;;;;;;;;;;;;;;;16.06;51.35;101540.19;2070430;28;20206;-60
2023/04/07 00:08:46;;;;;;;;;;;;;;;16.05;51.33;101549.50;2072358;28;19936;-59
2023/04/07 00:09:48;;;;;;;;;;;;;;;16.04;51.30;101540.56;2072306;28;19926;-58
2023/04/07 00:10:51;;;;;;;;;;;;;;;16.05;51.33;101535.88;2071466;28;19995;-60
2023/04/07 00:11:52;;;;;;;;;;;;;;;16.07;51.34;101533.59;2072990;28;19937;-60
2023/04/07 00:12:55;;;;;;;;;;;;;;;16.05;51.31;101539.41;2072096;28;19980;-60
2023/04/07 00:13:56;;;;;;;;;;;;;;;16.05;51.49;101533.97;2070205;28;19933;-60
2023/04/07 00:14:59;;;;;;;;;;;;;;;16.05;51.50;101541.34;2067258;28;19979;-60
2023/04/07 00:16:01;;;;;;;;;;;;;;;16.05;51.32;101531.22;2067031;28;19934;-59
2023/04/07 00:17:04;;;;;;;;;;;;;;;16.05;51.59;101533.97;2071881;28;19925;-60
2023/04/07 00:18:05;;;;;;;;;;;;;;;16.05;51.54;101536.69;2071212;28;20270;-59
2023/04/07 00:19:08;;;;;;;;;;;;;;;16.05;51.58;101533.97;2072128;28;20015;-60
2023/04/07 00:20:11;;;;;;;;;;;;;;;16.04;51.52;101529.66;2069685;28;19933;-60
2023/04/07 00:21:14;;;;;;;;;;;;;;;16.05;51.54;101536.69;2063720;28;20431;-60
2023/04/07 00:22:16;;;;;;;;;;;;;;;16.04;51.48;101532.41;2068543;28;19933;-60
2023/04/07 00:23:20;;;;;;;;;;;;;;;16.05;51.31;101533.97;2066225;28;19929;-57
2023/04/07 00:24:21;;;;;;;;;;;;;;;16.04;51.47;101535.13;2066502;28;19929;-60
2023/04/07 00:25:35;;;;;;;;;;;;;;;16.05;51.32;101527.72;2062632;28;19934;-59
2023/04/07 00:26:36;;;;;;;;;;;;;;;16.05;51.46;101533.16;2067687;28;20389;-60
2023/04/07 00:27:39;;;;;;;;;;;;;;;16.04;51.28;101532.41;2072702;28;20020;-60
2023/04/07 00:28:41;;;;;;;;;;;;;;;16.05;51.30;101527.72;2068235;28;19983;-60
2023/04/07 00:29:45;;;;;;;;;;;;;;;16.05;51.36;101536.69;2068166;28;20434;-59
2023/04/07 00:30:47;;;;;;;;;;;;;;;16.04;51.31;101532.41;2071020;28;19932;-61
2023/04/07 00:31:49;;;;;;;;;;;;;;;16.05;51.21;101528.50;2071553;28;19930;-55
2023/04/07 00:32:51;;;;;;;;;;;;;;;16.05;51.32;101525.78;2072475;28;19979;-60
2023/04/07 00:33:54;;;;;;;;;;;;;;;16.04;51.27;101532.41;2072027;28;19972;-60
2023/04/07 00:34:56;;;;;;;;;;;;;;;16.04;51.37;101535.13;2071267;28;19936;-60
2023/04/07 00:36:00;;;;;;;;;;;;;;;16.05;51.31;101536.69;2072180;28;20448;-58
2023/04/07 00:37:02;;;;;;;;;;;;;;;16.05;51.51;101533.16;2069064;28;19936;-61
2023/04/07 00:38:04;;;;;;;;;;;;;;;16.05;51.32;101527.72;2069212;28;20450;-60
2023/04/07 00:39:06;;;;;;;;;;;;;;;16.04;51.32;101532.41;2069859;28;20078;-61
2023/04/07 00:40:10;;;;;;;;;;;;;;;16.04;51.31;101526.94;2070443;28;19934;-60
2023/04/07 00:41:12;;;;;;;;;;;;;;;16.04;51.08;101529.66;2071810;28;20024;-60
2023/04/07 00:42:15;;;;;;;;;;;;;;;16.04;51.13;101537.84;2072179;28;19936;-58
2023/04/07 00:43:18;;;;;;;;;;;;;;;16.04;51.55;101523.44;2064690;28;19992;-61
2023/04/07 00:44:21;;;;;;;;;;;;;;;16.04;51.45;101532.41;2064061;28;19929;-59
2023/04/07 00:45:22;;;;;;;;;;;;;;;16.04;51.40;101526.94;2065612;28;19998;-60
2023/04/07 00:46:25;;;;;;;;;;;;;;;16.04;51.31;101529.66;2060365;28;19938;-60
2023/04/07 00:47:27;;;;;;;;;;;;;;;16.04;51.55;101526.94;2070908;28;19976;-60
2023/04/07 00:48:30;;;;;;;;;;;;;;;16.03;51.53;101525.34;2070465;28;19930;-60
2023/04/07 00:49:32;;;;;;;;;;;;;;;16.04;51.31;101521.50;2071926;28;19930;-60
2023/04/07 00:50:35;;;;;;;;;;;;;;;16.03;51.46;101525.34;2071664;28;19952;-60
2023/04/07 00:51:38;;;;;;;;;;;;;;;16.04;51.35;101537.84;2066195;28;20016;-60
2023/04/07 00:52:41;;;;;;;;;;;;;;;16.03;51.59;101530.81;2075390;28;20313;-59
2023/04/07 00:53:43;;;;;;;;;;;;;;;16.04;51.33;101532.41;2074027;28;19934;-58
2023/04/07 00:54:48;;;;;;;;;;;;;;;16.05;51.31;101535.88;2068391;28;20334;-60
2023/04/07 00:55:50;;;;;;;;;;;;;;;16.04;51.48;101537.03;2065283;28;19949;-59
2023/04/07 00:56:54;;;;;;;;;;;;;;;16.04;51.49;101537.84;2072304;28;19936;-60
2023/04/07 00:57:56;;;;;;;;;;;;;;;16.04;51.30;101537.84;2069638;28;19929;-59
2023/04/07 00:58:59;;;;;;;;;;;;;;;16.04;51.50;101532.41;2071579;28;19929;-60
2023/04/07 01:00:03;;;;;;;;;;;;;;;16.04;51.32;101540.56;2063453;28;19936;-61
2023/04/07 01:01:08;;;;;;;;;;;;;;;16.04;51.49;101537.84;2055494;28;20014;-60
2023/04/07 01:02:13;;;;;;;;;;;;;;;16.03;51.53;101535.47;2064509;28;20825;-60
2023/04/07 01:03:18;;;;;;;;;;;;;;;16.04;51.38;101537.84;2070319;28;19930;-60
2023/04/07 01:04:23;;;;;;;;;;;;;;;16.04;51.53;101537.84;2069697;28;20384;-59
2023/04/07 01:05:29;;;;;;;;;;;;;;;16.04;51.43;101537.84;2072224;28;20369;-60
2023/04/07 01:06:34;;;;;;;;;;;;;;;16.04;51.47;101532.41;2063423;28;20361;-60
2023/04/07 01:07:43;;;;;;;;;;;;;;;16.04;51.53;101537.84;2067447;28;20012;-60
2023/04/07 01:08:48;;;;;;;;;;;;;;;16.03;51.29;101546.38;2066001;28;19929;-59
2023/04/07 01:09:54;;;;;;;;;;;;;;;16.04;51.32;101532.41;2055409;28;19937;-55
2023/04/07 01:10:58;;;;;;;;;;;;;;;16.03;51.32;101533.53;2063009;28;20286;-59
2023/04/07 01:12:05;;;;;;;;;;;;;;;16.04;51.46;101537.03;2063354;28;19930;-59
2023/04/07 01:13:12;;;;;;;;;;;;;;;16.04;51.30;101529.66;2057909;28;20417;-61
2023/04/07 01:14:15;;;;;;;;;;;;;;;16.04;51.52;101531.59;2061930;28;20452;-61
2023/04/07 01:15:21;;;;;;;;;;;;;;;16.03;51.49;101530.03;2071605;28;19937;-60
2023/04/07 01:16:31;;;;;;;;;;;;;;;16.04;51.28;101531.59;2070019;28;20385;-62
2023/04/07 01:17:34;;;;;;;;;;;;;;;16.04;51.36;101531.59;2065779;28;19934;-59
2023/04/07 01:18:38;;;;;;;;;;;;;;;16.03;51.28;101530.03;2063740;28;20413;-60
2023/04/07 01:19:42;;;;;;;;;;;;;;;16.04;51.48;101531.59;2064142;28;20537;-59
2023/04/07 01:20:48;;;;;;;;;;;;;;;16.04;51.60;101531.59;2060366;28;19930;-58
2023/04/07 01:21:51;;;;;;;;;;;;;;;16.04;51.40;101528.88;2072105;28;19972;-59
2023/04/07 01:22:57;;;;;;;;;;;;;;;16.04;51.30;101529.66;2071354;28;19968;-60
2023/04/07 01:24:04;;;;;;;;;;;;;;;16.03;51.40;101530.81;2064583;28;19929;-60
2023/04/07 01:25:25;;;;;;;;;;;;;;;16.03;51.24;101525.34;2069908;28;19930;-59
2023/04/07 01:26:28;;;;;;;;;;;;;;;16.03;51.40;101530.81;2070805;28;20343;-60
2023/04/07 01:27:36;;;;;;;;;;;;;;;16.03;51.46;101525.34;2071450;28;19929;-60
2023/04/07 01:28:48;;;;;;;;;;;;;;;16.04;51.35;101528.88;2072562;28;19932;-64
2023/04/07 01:29:53;;;;;;;;;;;;;;;16.03;51.73;101530.81;2071900;28;19972;-58
2023/04/07 01:30:55;;;;;;;;;;;;;;;16.03;51.46;101530.81;2071646;28;19995;-60
2023/04/07 01:31:59;;;;;;;;;;;;;;;16.04;51.33;101535.13;2072088;28;19925;-61
2023/04/07 01:33:01;;;;;;;;;;;;;;;16.03;51.30;101528.06;2065240;28;20044;-60
2023/04/07 01:34:04;;;;;;;;;;;;;;;16.03;51.44;101530.81;2060180;28;19934;-60
2023/04/07 01:35:09;;;;;;;;;;;;;;;16.03;51.33;101530.81;2063984;28;20012;-61
2023/04/07 01:36:13;;;;;;;;;;;;;;;16.03;51.30;101530.81;2063150;28;20390;-60
2023/04/07 01:37:15;;;;;;;;;;;;;;;16.03;51.52;101528.06;2065811;28;20016;-59
2023/04/07 01:38:18;;;;;;;;;;;;;;;16.03;51.45;101530.03;2070961;28;19930;-60
2023/04/07 01:39:20;;;;;;;;;;;;;;;16.03;51.43;101524.59;2071464;28;19933;-59
2023/04/07 01:40:24;;;;;;;;;;;;;;;16.03;51.45;101525.34;2071323;28;19926;-60
2023/04/07 01:41:26;;;;;;;;;;;;;;;16.04;51.48;101531.59;2071740;28;19930;-60
2023/04/07 01:42:29;;;;;;;;;;;;;;;16.03;51.48;101528.06;2071171;28;20282;-61
2023/04/07 01:43:31;;;;;;;;;;;;;;;16.03;51.49;101525.34;2071365;28;20325;-59
2023/04/07 01:44:35;;;;;;;;;;;;;;;16.03;51.20;101525.34;2062331;28;20419;-60
2023/04/07 01:45:39;;;;;;;;;;;;;;;16.04;51.58;101528.88;2058963;28;20427;-60
2023/04/07 01:46:42;;;;;;;;;;;;;;;16.02;51.20;101523.78;2071388;28;19930;-60
2023/04/07 01:47:44;;;;;;;;;;;;;;;16.03;51.24;101522.63;2068465;28;20432;-61
2023/04/07 01:48:48;;;;;;;;;;;;;;;16.03;51.40;101530.81;2070509;28;19975;-59
2023/04/07 01:49:51;;;;;;;;;;;;;;;16.02;51.45;101526.50;2071350;28;19979;-59
2023/04/07 01:50:53;;;;;;;;;;;;;;;16.02;51.43;101523.00;2070330;28;20084;-60
2023/04/07 01:51:57;;;;;;;;;;;;;;;16.03;51.50;101524.59;2070462;28;19929;-60
2023/04/07 01:52:59;;;;;;;;;;;;;;;16.02;51.34;101523.78;2071533;28;20381;-61
2023/04/07 01:54:02;;;;;;;;;;;;;;;16.03;51.48;101527.31;2071450;28;20007;-59
2023/04/07 01:55:05;;;;;;;;;;;;;;;16.03;51.49;101527.31;2072064;28;19926;-57
2023/04/07 01:56:12;;;;;;;;;;;;;;;16.02;51.47;101529.22;2070683;28;20454;-60
2023/04/07 01:57:14;;;;;;;;;;;;;;;16.02;51.57;101531.97;2063397;28;19930;-62
2023/04/07 01:58:17;;;;;;;;;;;;;;;16.02;51.47;101528.44;2063700;28;20282;-59
2023/04/07 01:59:19;;;;;;;;;;;;;;;16.02;51.61;101529.22;2068910;28;19930;-60
2023/04/07 02:00:21;;;;;;;;;;;;;;;16.03;51.60;101530.81;2070118;28;20024;-58
2023/04/07 02:01:28;;;;;;;;;;;;;;;16.02;51.56;101523.00;2057486;28;19926;-60
2023/04/07 02:02:33;;;;;;;;;;;;;;;16.02;51.44;101529.22;2069894;28;20593;-62
2023/04/07 02:03:39;;;;;;;;;;;;;;;16.03;51.23;101530.81;2071360;28;20331;-60
2023/04/07 02:04:48;;;;;;;;;;;;;;;16.02;51.41;101531.16;2071105;28;19937;-60
2023/04/07 02:05:53;;;;;;;;;;;;;;;16.02;51.38;101529.22;2070774;28;19995;-57
2023/04/07 02:07:01;;;;;;;;;;;;;;;16.02;51.51;101531.97;2072008;28;19929;-58
2023/04/07 02:08:10;;;;;;;;;;;;;;;16.02;51.53;101531.97;2072173;28;20369;-62
2023/04/07 02:09:15;;;;;;;;;;;;;;;16.02;51.49;101529.22;2068927;28;20578;-60
2023/04/07 02:10:19;;;;;;;;;;;;;;;16.02;51.62;101534.69;2062720;28;19972;-61
2023/04/07 02:11:24;;;;;;;;;;;;;;;16.02;51.46;101523.78;2057723;28;19930;-60
2023/04/07 02:12:30;;;;;;;;;;;;;;;16.03;51.45;101535.47;2057715;28;19926;-61
2023/04/07 02:13:43;;;;;;;;;;;;;;;16.02;51.24;101529.22;2060727;28;20389;-60
2023/04/07 02:14:46;;;;;;;;;;;;;;;16.02;51.50;101529.22;2056434;28;19984;-59
2023/04/07 02:15:51;;;;;;;;;;;;;;;16.03;51.28;101536.25;2062670;28;19933;-61
2023/04/07 02:16:56;;;;;;;;;;;;;;;16.03;51.26;101530.03;2062942;28;20012;-59
2023/04/07 02:18:00;;;;;;;;;;;;;;;16.02;51.32;101534.69;2066609;28;20404;-60
2023/04/07 02:19:03;;;;;;;;;;;;;;;16.03;51.33;101530.03;2068406;28;20422;-60
2023/04/07 02:20:08;;;;;;;;;;;;;;;16.03;51.36;101528.06;2069989;28;19926;-60
2023/04/07 02:21:11;;;;;;;;;;;;;;;16.03;51.22;101532.75;2071706;28;19929;-60
2023/04/07 02:22:15;;;;;;;;;;;;;;;16.02;51.29;101531.97;2070987;28;20415;-60
2023/04/07 02:23:17;;;;;;;;;;;;;;;16.02;51.45;101531.97;2070894;28;20324;-61
2023/04/07 02:24:20;;;;;;;;;;;;;;;16.02;51.31;101529.22;2062814;28;20034;-60
2023/04/07 02:25:23;;;;;;;;;;;;;;;16.03;51.19;101530.03;2063351;28;20451;-61
2023/04/07 02:26:28;;;;;;;;;;;;;;;16.03;51.46;101530.81;2077346;28;20048;-60
2023/04/07 02:27:30;;;;;;;;;;;;;;;16.01;51.41;101533.13;2071415;28;19952;-59
2023/04/07 02:28:33;;;;;;;;;;;;;;;16.02;51.30;101528.44;2070958;28;19925;-61
2023/04/07 02:29:35;;;;;;;;;;;;;;;16.02;51.32;101528.44;2070602;28;19964;-60
2023/04/07 02:30:38;;;;;;;;;;;;;;;16.02;51.48;101528.44;2068684;28;20434;-61
2023/04/07 02:31:40;;;;;;;;;;;;;;;16.02;51.41;101534.69;2070219;28;19925;-60
2023/04/07 02:32:44;;;;;;;;;;;;;;;16.03;51.39;101535.47;2070675;28;20381;-60
2023/04/07 02:33:47;;;;;;;;;;;;;;;16.01;51.30;101533.13;2067037;28;20424;-60
2023/04/07 02:34:50;;;;;;;;;;;;;;;16.02;51.39;101529.22;2063244;28;19930;-60
2023/04/07 02:35:51;;;;;;;;;;;;;;;16.02;51.25;101537.41;2071795;28;19933;-61
2023/04/07 02:36:55;;;;;;;;;;;;;;;16.02;51.25;101531.97;2070670;28;20301;-60
2023/04/07 02:37:57;;;;;;;;;;;;;;;16.02;51.38;101537.41;2071084;28;19977;-62
2023/04/07 02:39:00;;;;;;;;;;;;;;;16.02;51.42;101531.16;2070924;28;20055;-60
2023/04/07 02:40:02;;;;;;;;;;;;;;;16.03;51.58;101535.47;2071306;28;19976;-59
2023/04/07 02:41:05;;;;;;;;;;;;;;;16.02;51.38;101534.69;2072206;28;19942;-59
2023/04/07 02:42:07;;;;;;;;;;;;;;;16.03;51.21;101530.03;2071258;28;20377;-60
2023/04/07 02:43:10;;;;;;;;;;;;;;;16.02;50.81;101544.78;2069683;28;20016;-60
2023/04/07 02:44:11;;;;;;;;;;;;;;;16.02;51.40;101539.31;2068932;28;20381;-64
2023/04/07 02:45:15;;;;;;;;;;;;;;;16.03;51.67;101546.38;2070698;28;19964;-59
2023/04/07 02:46:16;;;;;;;;;;;;;;;16.02;51.20;101536.59;2072124;28;19925;-61
2023/04/07 02:47:19;;;;;;;;;;;;;;;16.02;51.33;101540.13;2061872;28;19929;-61
2023/04/07 02:48:22;;;;;;;;;;;;;;;16.02;51.50;101533.88;2063439;28;19930;-59
2023/04/07 02:49:25;;;;;;;;;;;;;;;16.02;51.31;101544.78;2070649;28;19929;-61
2023/04/07 02:50:27;;;;;;;;;;;;;;;16.01;51.44;101538.56;2071813;28;19941;-60
2023/04/07 02:51:30;;;;;;;;;;;;;;;16.01;51.54;101544.00;2068691;28;19963;-60
2023/04/07 02:52:32;;;;;;;;;;;;;;;16.01;51.50;101546.72;2061457;28;20344;-61
2023/04/07 02:53:37;;;;;;;;;;;;;;;16.01;51.30;101549.47;2058014;28;19930;-60
2023/04/07 02:54:40;;;;;;;;;;;;;;;16.01;51.50;101538.56;2054098;28;20740;-62
2023/04/07 02:55:44;;;;;;;;;;;;;;;16.01;51.51;101545.94;2056892;28;19961;-61
2023/04/07 02:56:46;;;;;;;;;;;;;;;16.01;51.44;101549.47;2063038;28;19930;-60
2023/04/07 02:57:49;;;;;;;;;;;;;;;16.01;51.44;101546.72;2067329;28;20389;-60
2023/04/07 02:59:04;;;;;;;;;;;;;;;16.01;51.55;101544.00;2068499;28;20035;-61
2023/04/07 03:00:12;;;;;;;;;;;;;;;16.01;51.33;101543.22;2062846;28;20019;-60
2023/04/07 03:01:30;;;;;;;;;;;;;;;16.01;51.51;101538.56;2059208;28;19968;-57
2023/04/07 03:02:33;;;;;;;;;;;;;;;16.02;51.33;101533.88;2062612;28;20397;-65
2023/04/07 03:03:38;;;;;;;;;;;;;;;16.01;51.38;101533.13;2062711;28;20557;-58
2023/04/07 03:04:46;;;;;;;;;;;;;;;16.01;51.45;101543.22;2055751;28;19973;-58
2023/04/07 03:05:49;;;;;;;;;;;;;;;16.01;51.35;101533.13;2062062;28;20013;-60
2023/04/07 03:06:52;;;;;;;;;;;;;;;16.01;51.34;101537.75;2070552;28;20302;-61
2023/04/07 03:07:54;;;;;;;;;;;;;;;16.01;51.41;101537.75;2069876;28;20386;-61
2023/04/07 03:08:57;;;;;;;;;;;;;;;16.01;51.55;101533.13;2071173;28;20299;-59
2023/04/07 03:09:58;;;;;;;;;;;;;;;16.01;51.32;101538.56;2071422;28;20308;-60
2023/04/07 03:11:01;;;;;;;;;;;;;;;16.01;51.34;101537.75;2058210;28;20373;-59
2023/04/07 03:12:04;;;;;;;;;;;;;;;16.01;51.38;101533.13;2052058;28;20042;-61
2023/04/07 03:13:11;;;;;;;;;;;;;;;16.01;51.22;101538.56;2055178;28;20299;-60
2023/04/07 03:14:13;;;;;;;;;;;;;;;16.00;51.39;101534.25;2058927;28;19926;-60
2023/04/07 03:15:20;;;;;;;;;;;;;;;16.01;51.43;101532.31;2055229;28;20041;-61
2023/04/07 03:16:23;;;;;;;;;;;;;;;16.01;51.20;101535.84;2063044;28;19926;-61
2023/04/07 03:17:40;;;;;;;;;;;;;;;16.02;51.30;101531.16;2071261;28;19932;-61
2023/04/07 03:18:44;;;;;;;;;;;;;;;16.01;51.24;101530.38;2070496;28;19983;-60
2023/04/07 03:19:46;;;;;;;;;;;;;;;16.00;51.38;101542.41;2068856;28;20419;-57
2023/04/07 03:20:48;;;;;;;;;;;;;;;16.01;51.13;101544.00;2062580;28;19930;-61
2023/04/07 03:21:52;;;;;;;;;;;;;;;16.01;51.48;101538.56;2065657;28;19941;-60
2023/04/07 03:22:55;;;;;;;;;;;;;;;16.01;51.46;101537.75;2074144;28;20380;-61
2023/04/07 03:24:01;;;;;;;;;;;;;;;16.01;51.18;101544.00;2070996;28;20443;-58
2023/04/07 03:25:04;;;;;;;;;;;;;;;16.02;51.29;101544.78;2071313;28;19933;-60
2023/04/07 03:26:06;;;;;;;;;;;;;;;16.00;51.47;101542.41;2071167;28;20305;-61
2023/04/07 03:27:11;;;;;;;;;;;;;;;16.02;51.22;101544.78;2065999;28;19926;-60
2023/04/07 03:28:17;;;;;;;;;;;;;;;16.01;51.34;101544.00;2057536;28;20389;-60
2023/04/07 03:29:20;;;;;;;;;;;;;;;16.01;51.32;101544.00;2062444;28;19930;-61
2023/04/07 03:30:22;;;;;;;;;;;;;;;16.01;51.38;101548.66;2070092;28;19929;-60
2023/04/07 03:31:25;;;;;;;;;;;;;;;16.01;51.37;101549.47;2072074;28;19932;-61
2023/04/07 03:32:27;;;;;;;;;;;;;;;16.01;51.41;101549.47;2062844;28;19929;-60
2023/04/07 03:33:31;;;;;;;;;;;;;;;16.01;51.37;101544.00;2062756;28;19926;-60
2023/04/07 03:34:34;;;;;;;;;;;;;;;16.01;51.30;101538.56;2073615;28;20338;-60
2023/04/07 03:35:37;;;;;;;;;;;;;;;16.02;51.41;101550.22;2067065;28;19941;-58
2023/04/07 03:36:41;;;;;;;;;;;;;;;16.01;51.41;101538.56;2065031;28;19925;-61
2023/04/07 03:37:42;;;;;;;;;;;;;;;16.01;51.21;101546.72;2069254;28;20017;-59
2023/04/07 03:38:49;;;;;;;;;;;;;;;16.01;51.48;101548.66;2066413;28;19932;-60
2023/04/07 03:39:52;;;;;;;;;;;;;;;16.01;51.34;101545.94;2072280;28;20044;-60
2023/04/07 03:41:01;;;;;;;;;;;;;;;16.01;51.43;101535.84;2071967;28;20384;-61
2023/04/07 03:42:03;;;;;;;;;;;;;;;16.01;51.23;101546.72;2070458;28;19933;-60
2023/04/07 03:43:11;;;;;;;;;;;;;;;16.01;51.29;101548.66;2065315;28;19979;-60
2023/04/07 03:44:13;;;;;;;;;;;;;;;16.01;51.18;101545.94;2059760;28;19930;-60
2023/04/07 03:45:16;;;;;;;;;;;;;;;16.01;51.38;101554.91;2063522;28;20270;-60
2023/04/07 03:46:23;;;;;;;;;;;;;;;16.01;51.41;101552.19;2073465;28;20335;-60
2023/04/07 03:47:26;;;;;;;;;;;;;;;16.00;51.35;101542.41;2073809;28;19932;-56
2023/04/07 03:48:32;;;;;;;;;;;;;;;16.01;51.25;101545.94;2080970;28;20276;-60
2023/04/07 03:49:44;;;;;;;;;;;;;;;16.01;51.14;101551.38;2063785;28;19960;-61
2023/04/07 03:50:46;;;;;;;;;;;;;;;16.00;51.40;101557.97;2063822;28;20330;-58
2023/04/07 03:51:51;;;;;;;;;;;;;;;16.00;51.26;101547.06;2066102;28;20012;-61
2023/04/07 03:52:53;;;;;;;;;;;;;;;16.00;51.21;101552.50;2063873;28;20317;-61
2023/04/07 03:54:00;;;;;;;;;;;;;;;16.00;51.11;101553.31;2072875;28;20412;-60
2023/04/07 03:55:08;;;;;;;;;;;;;;;16.00;51.29;101547.88;2071530;28;19964;-60
2023/04/07 03:56:11;;;;;;;;;;;;;;;16.01;51.08;101556.84;2072830;28;19979;-60
2023/04/07 03:57:19;;;;;;;;;;;;;;;16.00;51.21;101552.50;2068428;28;20427;-60
2023/04/07 03:58:23;;;;;;;;;;;;;;;16.00;51.38;101552.50;2060914;28;19930;-61
2023/04/07 03:59:24;;;;;;;;;;;;;;;16.00;51.27;101561.47;2070910;28;19926;-61
2023/04/07 04:00:33;;;;;;;;;;;;;;;16.01;51.45;101565.00;2071150;28;20012;-60
2023/04/07 04:01:40;;;;;;;;;;;;;;;16.00;51.23;101558.75;2063203;28;20559;-60
2023/04/07 04:02:49;;;;;;;;;;;;;;;16.00;51.45;101553.31;2063270;28;20401;-61
2023/04/07 04:03:53;;;;;;;;;;;;;;;16.00;51.39;101569.66;2068502;28;19929;-60
2023/04/07 04:05:00;;;;;;;;;;;;;;;15.99;51.37;101573.53;2067585;28;19941;-61
2023/04/07 04:06:02;;;;;;;;;;;;;;;16.00;51.37;101568.84;2064510;28;20016;-60
2023/04/07 04:07:06;;;;;;;;;;;;;;;16.00;51.41;101564.19;2059129;28;19941;-60
2023/04/07 04:08:21;;;;;;;;;;;;;;;16.00;51.23;101563.41;2057249;28;19984;-60
2023/04/07 04:09:24;;;;;;;;;;;;;;;16.00;51.43;101568.84;2064073;28;19949;-58
2023/04/07 04:10:26;;;;;;;;;;;;;;;16.00;51.44;101566.94;2063643;28;20517;-60
2023/04/07 04:11:30;;;;;;;;;;;;;;;16.00;51.16;101566.13;2064765;28;19983;-60
2023/04/07 04:12:36;;;;;;;;;;;;;;;16.00;51.29;101568.84;2063024;28;20029;-57
2023/04/07 04:13:43;;;;;;;;;;;;;;;16.00;51.39;101563.41;2049961;28;20297;-60
2023/04/07 04:14:45;;;;;;;;;;;;;;;15.99;51.24;101562.63;2067952;28;19938;-59
2023/04/07 04:15:49;;;;;;;;;;;;;;;15.99;51.29;101568.09;2071133;28;19929;-60
2023/04/07 04:16:52;;;;;;;;;;;;;;;15.99;51.29;101570.81;2071890;28;20405;-60
2023/04/07 04:18:01;;;;;;;;;;;;;;;15.99;51.34;101568.09;2063951;28;20021;-60
2023/04/07 04:19:05;;;;;;;;;;;;;;;16.00;51.32;101571.56;2062846;28;19945;-60
2023/04/07 04:20:09;;;;;;;;;;;;;;;16.00;51.29;101574.31;2075834;28;20009;-59
2023/04/07 04:21:21;;;;;;;;;;;;;;;16.00;51.33;101574.31;2065221;28;20010;-58
2023/04/07 04:22:24;;;;;;;;;;;;;;;15.99;51.32;101573.53;2057666;28;19973;-61
2023/04/07 04:23:29;;;;;;;;;;;;;;;15.99;51.45;101578.97;2055792;28;19930;-58
2023/04/07 04:24:33;;;;;;;;;;;;;;;16.00;51.49;101579.75;2064313;28;19929;-60
2023/04/07 04:25:38;;;;;;;;;;;;;;;16.00;51.42;101580.53;2056268;28;20382;-58
2023/04/07 04:26:41;;;;;;;;;;;;;;;16.00;51.43;101583.28;2055949;28;19937;-60
2023/04/07 04:27:47;;;;;;;;;;;;;;;16.00;51.17;101585.19;2056840;28;19996;-55
2023/04/07 04:28:53;;;;;;;;;;;;;;;15.99;51.28;101581.72;2059124;28;19953;-61
2023/04/07 04:29:56;;;;;;;;;;;;;;;15.99;51.47;101576.25;2064967;28;20368;-59
2023/04/07 04:31:20;;;;;;;;;;;;;;;15.99;51.48;101584.44;2071090;28;19941;-61
2023/04/07 04:32:23;;;;;;;;;;;;;;;15.99;51.26;101578.97;2063503;28;19930;-60
2023/04/07 04:33:25;;;;;;;;;;;;;;;16.00;51.50;101587.91;2056012;28;19930;-60
2023/04/07 04:34:33;;;;;;;;;;;;;;;15.99;51.44;101589.88;2064277;28;19933;-60
2023/04/07 04:35:36;;;;;;;;;;;;;;;15.99;51.36;101586.34;2070588;28;19929;-60
2023/04/07 04:36:43;;;;;;;;;;;;;;;15.99;51.32;101595.31;2065492;28;20024;-59
2023/04/07 04:37:45;;;;;;;;;;;;;;;15.99;51.36;101586.34;2068769;28;20416;-60
2023/04/07 04:38:48;;;;;;;;;;;;;;;15.98;51.26;101588.28;2064100;28;19952;-60
2023/04/07 04:39:53;;;;;;;;;;;;;;;15.98;51.38;101596.44;2058338;28;20019;-60
2023/04/07 04:40:57;;;;;;;;;;;;;;;15.99;51.47;101589.06;2063501;28;19989;-59
2023/04/07 04:42:03;;;;;;;;;;;;;;;15.98;51.44;101593.72;2067414;28;19952;-59
2023/04/07 04:43:09;;;;;;;;;;;;;;;15.99;51.40;101591.81;2071066;28;20424;-60
2023/04/07 04:44:14;;;;;;;;;;;;;;;15.99;51.53;101594.53;2055299;28;20385;-60
2023/04/07 04:45:17;;;;;;;;;;;;;;;15.98;51.53;101601.91;2048156;28;19942;-59
2023/04/07 04:46:22;;;;;;;;;;;;;;;15.99;51.33;101600.78;2055040;28;19934;-60
2023/04/07 04:47:24;;;;;;;;;;;;;;;15.99;51.35;101599.97;2058942;28;19987;-60
2023/04/07 04:48:27;;;;;;;;;;;;;;;15.99;51.31;101599.97;2055313;28;20016;-60
2023/04/07 04:49:28;;;;;;;;;;;;;;;15.98;51.49;101599.19;2063233;28;20396;-59
2023/04/07 04:50:35;;;;;;;;;;;;;;;15.98;51.38;101596.44;2065493;28;19932;-60
2023/04/07 04:51:43;;;;;;;;;;;;;;;15.98;51.34;101604.63;2055928;28;19930;-60
2023/04/07 04:52:49;;;;;;;;;;;;;;;15.98;51.48;101610.06;2065775;28;19929;-60
2023/04/07 04:53:56;;;;;;;;;;;;;;;15.98;51.20;101607.34;2066796;28;20648;-61
2023/04/07 04:55:00;;;;;;;;;;;;;;;15.98;51.35;101604.63;2062974;28;19972;-60
2023/04/07 04:56:03;;;;;;;;;;;;;;;15.97;51.47;101608.50;2055457;28;20430;-60
2023/04/07 04:57:12;;;;;;;;;;;;;;;15.98;51.44;101604.63;2065068;28;19952;-60
2023/04/07 04:58:15;;;;;;;;;;;;;;;15.99;51.48;101610.88;2073065;28;20349;-60
2023/04/07 04:59:22;;;;;;;;;;;;;;;15.98;51.38;101612.78;2072895;28;19929;-61
2023/04/07 05:00:32;;;;;;;;;;;;;;;15.98;51.33;101612.78;2059098;28;20411;-60
2023/04/07 05:01:39;;;;;;;;;;;;;;;15.98;51.28;101610.06;2055974;28;19949;-60
2023/04/07 05:02:45;;;;;;;;;;;;;;;15.99;51.30;101605.41;2059301;28;19926;-60
2023/04/07 05:03:48;;;;;;;;;;;;;;;15.99;51.29;101606.22;2060251;28;19934;-58
2023/04/07 05:05:02;;;;;;;;;;;;;;;15.98;51.36;101610.06;2070454;28;20492;-54
2023/04/07 05:06:06;;;;;;;;;;;;;;;15.98;51.45;101615.50;2071995;28;19925;-55
2023/04/07 05:07:09;;;;;;;;;;;;;;;15.98;51.47;101610.06;2073282;28;19984;-55
2023/04/07 05:08:12;;;;;;;;;;;;;;;15.98;51.19;101615.50;2071455;28;20428;-55
2023/04/07 05:09:14;;;;;;;;;;;;;;;15.99;51.43;101616.31;2066913;28;19929;-55
2023/04/07 05:10:22;;;;;;;;;;;;;;;15.99;51.35;101611.66;2063694;28;19933;-55
2023/04/07 05:11:25;;;;;;;;;;;;;;;15.98;51.31;101609.31;2071857;28;20016;-56
2023/04/07 05:12:30;;;;;;;;;;;;;;;15.99;51.51;101616.31;2062448;28;19933;-56
2023/04/07 05:13:35;;;;;;;;;;;;;;;15.98;51.21;101620.97;2055533;28;19933;-54
2023/04/07 05:14:39;;;;;;;;;;;;;;;15.98;51.20;101612.03;2063081;28;19934;-54
2023/04/07 05:15:42;;;;;;;;;;;;;;;15.98;51.40;101615.50;2071881;28;19944;-56
2023/04/07 05:16:47;;;;;;;;;;;;;;;15.98;51.42;101617.47;2077457;28;20032;-56
2023/04/07 05:17:53;;;;;;;;;;;;;;;15.98;51.24;101620.19;2063345;28;19948;-55
2023/04/07 05:19:00;;;;;;;;;;;;;;;15.97;51.36;101627.56;2064053;28;19930;-56
2023/04/07 05:20:03;;;;;;;;;;;;;;;15.98;51.41;101620.19;2069840;28;19975;-55
2023/04/07 05:21:11;;;;;;;;;;;;;;;15.98;51.46;101614.75;2062259;28;20332;-55
2023/04/07 05:22:15;;;;;;;;;;;;;;;15.98;51.39;101631.84;2060339;28;20282;-55
2023/04/07 05:23:21;;;;;;;;;;;;;;;15.98;51.38;101625.66;2055110;28;19930;-56
2023/04/07 05:24:25;;;;;;;;;;;;;;;15.98;51.41;101625.66;2060982;28;20391;-55
2023/04/07 05:25:30;;;;;;;;;;;;;;;15.98;51.29;101625.66;2058245;28;20456;-55
2023/04/07 05:26:36;;;;;;;;;;;;;;;15.98;51.49;101631.84;2056122;28;20436;-56
2023/04/07 05:27:40;;;;;;;;;;;;;;;15.98;51.37;101631.84;2066002;28;20305;-56
2023/04/07 05:28:46;;;;;;;;;;;;;;;15.97;51.50;101630.28;2070766;28;20346;-54
2023/04/07 05:29:54;;;;;;;;;;;;;;;15.98;51.34;101637.31;2071435;28;20320;-55